createdAt,value
2018-03-03T00:02:25.694Z,0.50
2018-03-03T00:04:52.101Z,0.50
2018-03-03T00:07:18.526Z,0.50
2018-03-03T00:09:44.940Z,0.50
2018-03-03T00:12:11.336Z,0.50
2018-03-03T00:14:37.758Z,0.40
2018-03-03T00:17:04.206Z,0.40
2018-03-03T00:19:30.589Z,0.40
2018-03-03T00:21:56.988Z,0.30
2018-03-03T00:24:23.378Z,0.30
2018-03-03T00:26:50.539Z,0.30
2018-03-03T00:29:17.657Z,0.30
2018-03-03T00:31:44.640Z,0.30
2018-03-03T00:34:11.022Z,0.30
2018-03-03T00:36:37.421Z,0.20
2018-03-03T00:39:03.934Z,0.30
2018-03-03T00:41:30.333Z,0.30
2018-03-03T00:43:56.697Z,0.30
2018-03-03T00:46:23.066Z,0.30
2018-03-03T00:48:49.442Z,0.30
2018-03-03T00:51:15.820Z,0.20
2018-03-03T00:53:42.222Z,0.30
2018-03-03T00:56:08.608Z,0.30
2018-03-03T00:58:35.033Z,0.20
2018-03-03T01:01:02.402Z,0.10
2018-03-03T01:03:28.781Z,0.00
2018-03-03T01:05:55.186Z,0.10
2018-03-03T01:08:22.334Z,0.20
2018-03-03T01:10:49.483Z,0.10
2018-03-03T01:13:16.589Z,0.10
2018-03-03T01:15:43.001Z,0.10
2018-03-03T01:18:10.091Z,0.10
2018-03-03T01:20:36.505Z,0.00
2018-03-03T01:23:02.873Z,0.00
2018-03-03T01:25:29.274Z,0.00
2018-03-03T01:27:55.683Z,0.00
2018-03-03T01:30:22.077Z,-0.10
2018-03-03T01:32:48.486Z,-0.30
2018-03-03T01:35:15.739Z,-0.30
2018-03-03T01:37:42.908Z,-0.30
2018-03-03T01:40:09.285Z,-0.30
2018-03-03T01:42:35.735Z,-0.30
2018-03-03T01:45:02.117Z,-0.30
2018-03-03T01:47:28.566Z,-0.30
2018-03-03T01:49:54.966Z,-0.30
2018-03-03T01:52:21.425Z,-0.30
2018-03-03T01:54:47.793Z,-0.30
2018-03-03T01:57:14.161Z,-0.50
2018-03-03T01:59:40.540Z,-0.60
2018-03-03T02:02:06.909Z,-0.60
2018-03-03T02:04:33.320Z,-0.60
2018-03-03T02:06:59.702Z,-0.60
2018-03-03T02:09:26.063Z,-0.60
2018-03-03T02:11:52.427Z,-0.60
2018-03-03T02:14:19.513Z,-1.00
2018-03-03T02:16:45.987Z,-1.00
2018-03-03T02:19:12.442Z,-1.10
2018-03-03T02:21:39.616Z,-1.10
2018-03-03T02:24:06.021Z,-1.10
2018-03-03T02:26:33.154Z,-1.00
2018-03-03T02:28:59.510Z,-1.00
2018-03-03T02:31:25.920Z,-0.90
2018-03-03T02:33:53.031Z,-0.90
2018-03-03T02:36:19.497Z,-0.90
2018-03-03T02:38:46.612Z,-0.90
2018-03-03T02:41:13.076Z,-0.90
2018-03-03T02:43:40.215Z,-0.90
2018-03-03T02:46:06.579Z,-0.90
2018-03-03T02:48:32.958Z,-0.90
2018-03-03T02:50:59.345Z,-0.90
2018-03-03T02:53:25.690Z,-0.90
2018-03-03T02:55:52.045Z,-0.80
2018-03-03T02:58:18.400Z,-0.80
2018-03-03T03:00:45.572Z,-0.90
2018-03-03T03:03:11.972Z,-0.90
2018-03-03T03:05:39.158Z,-0.90
2018-03-03T03:08:05.573Z,-0.90
2018-03-03T03:10:31.972Z,-0.80
2018-03-03T03:12:58.355Z,-0.80
2018-03-03T03:15:24.728Z,-0.80
2018-03-03T03:17:51.088Z,-0.80
2018-03-03T03:20:18.217Z,-0.80
2018-03-03T03:22:44.586Z,-0.80
2018-03-03T03:25:10.955Z,-0.80
2018-03-03T03:27:37.367Z,-0.90
2018-03-03T03:30:03.731Z,-0.90
2018-03-03T03:32:30.105Z,-0.90
2018-03-03T03:34:56.521Z,-0.90
2018-03-03T03:37:23.626Z,-0.90
2018-03-03T03:39:50.004Z,-1.00
2018-03-03T03:42:16.377Z,-1.00
2018-03-03T03:44:42.762Z,-1.00
2018-03-03T03:47:09.179Z,-1.00
2018-03-03T03:49:35.559Z,-1.00
2018-03-03T03:52:01.958Z,-0.90
2018-03-03T03:54:29.052Z,-1.00
2018-03-03T03:56:55.427Z,-1.00
2018-03-03T03:59:21.921Z,-1.00
2018-03-03T04:01:48.298Z,-1.00
2018-03-03T04:04:15.413Z,-1.00
2018-03-03T04:06:41.814Z,-1.00
2018-03-03T04:09:08.225Z,-1.10
2018-03-03T04:11:34.650Z,-1.20
2018-03-03T04:14:01.035Z,-1.20
2018-03-03T04:16:27.441Z,-1.20
2018-03-03T04:18:53.854Z,-1.10
2018-03-03T04:21:20.234Z,-1.10
2018-03-03T04:23:46.661Z,-1.10
2018-03-03T04:26:13.076Z,-1.10
2018-03-03T04:28:39.550Z,-1.20
2018-03-03T04:31:06.699Z,-1.30
2018-03-03T04:33:33.877Z,-1.30
2018-03-03T04:36:00.322Z,-1.30
2018-03-03T04:38:26.770Z,-1.30
2018-03-03T04:40:53.176Z,-1.30
2018-03-03T04:43:19.534Z,-1.30
2018-03-03T04:45:45.938Z,-1.20
2018-03-03T04:48:12.320Z,-1.20
2018-03-03T04:50:38.761Z,-1.30
2018-03-03T04:53:05.932Z,-1.30
2018-03-03T04:55:32.306Z,-1.30
2018-03-03T04:57:58.740Z,-1.30
2018-03-03T05:03:30.063Z,-1.30
2018-03-03T05:06:02.399Z,-1.30
2018-03-03T05:08:32.428Z,-1.40
2018-03-03T05:10:58.829Z,-1.40
2018-03-03T05:13:26.221Z,-1.40
2018-03-03T05:18:59.800Z,-1.50
2018-03-03T05:21:32.277Z,-1.50
2018-03-03T05:27:05.977Z,-1.50
2018-03-03T05:29:38.460Z,-1.50
2018-03-03T05:35:13.603Z,-1.50
2018-03-03T05:37:45.921Z,-1.50
2018-03-03T05:40:19.174Z,-1.40
2018-03-03T05:46:06.327Z,-1.60
2018-03-03T05:51:50.755Z,-1.60
2018-03-03T05:54:34.994Z,-1.60
2018-03-03T05:57:02.222Z,-1.60
2018-03-03T05:59:32.169Z,-1.60
2018-03-03T06:02:04.641Z,-1.60
2018-03-03T06:04:31.921Z,-1.60
2018-03-03T06:07:05.217Z,-1.60
2018-03-03T06:09:34.518Z,-1.60
2018-03-03T06:12:00.932Z,-1.50
2018-03-03T06:14:27.978Z,-1.50
2018-03-03T06:16:54.389Z,-1.60
2018-03-03T06:19:21.021Z,-1.60
2018-03-03T06:21:47.397Z,-1.60
2018-03-03T06:24:14.570Z,-1.60
2018-03-03T06:26:41.654Z,-1.70
2018-03-03T06:29:08.041Z,-1.70
2018-03-03T06:31:34.403Z,-1.70
2018-03-03T06:34:00.786Z,-1.70
2018-03-03T06:36:27.192Z,-1.70
2018-03-03T06:38:53.542Z,-1.70
2018-03-03T06:41:19.978Z,-1.70
2018-03-03T06:43:46.355Z,-1.70
2018-03-03T06:46:12.820Z,-1.60
2018-03-03T06:48:46.309Z,-1.60
2018-03-03T06:51:12.740Z,-1.60
2018-03-03T06:53:39.087Z,-1.60
2018-03-03T06:56:05.455Z,-1.60
2018-03-03T06:58:32.588Z,-1.60
2018-03-03T07:00:58.952Z,-1.60
2018-03-03T07:03:25.349Z,-1.50
2018-03-03T07:05:51.706Z,-1.70
2018-03-03T07:08:18.905Z,-1.80
2018-03-03T07:10:45.250Z,-1.80
2018-03-03T07:13:11.678Z,-1.80
2018-03-03T07:15:38.112Z,-1.60
2018-03-03T07:18:04.502Z,-1.60
2018-03-03T07:20:30.873Z,-1.50
2018-03-03T07:22:57.241Z,-1.40
2018-03-03T07:25:23.660Z,-1.30
2018-03-03T07:27:50.782Z,-1.30
2018-03-03T07:30:17.939Z,-1.20
2018-03-03T07:32:44.323Z,-1.20
2018-03-03T07:35:10.763Z,-1.10
2018-03-03T07:37:37.235Z,-1.00
2018-03-03T07:40:03.603Z,-1.00
2018-03-03T07:42:29.992Z,-0.90
2018-03-03T07:44:56.366Z,-0.90
2018-03-03T07:47:22.738Z,-0.90
2018-03-03T07:49:49.202Z,-0.80
2018-03-03T07:52:16.319Z,-0.60
2018-03-03T07:54:42.745Z,-0.60
2018-03-03T07:57:11.077Z,-0.50
2018-03-03T07:59:37.493Z,-0.40
2018-03-03T08:02:04.669Z,-0.30
2018-03-03T08:04:31.106Z,-0.30
2018-03-03T08:06:57.646Z,-0.30
2018-03-03T08:09:24.930Z,-0.30
2018-03-03T08:11:51.322Z,-0.30
2018-03-03T08:14:17.674Z,-0.10
2018-03-03T08:16:44.054Z,0.00
2018-03-03T08:19:11.153Z,0.00
2018-03-03T08:21:37.537Z,0.00
2018-03-03T08:24:03.966Z,0.10
2018-03-03T08:26:30.334Z,0.10
2018-03-03T08:28:57.483Z,0.00
2018-03-03T08:31:23.907Z,0.00
2018-03-03T08:33:50.322Z,0.10
2018-03-03T08:36:16.710Z,0.10
2018-03-03T08:38:43.146Z,0.30
2018-03-03T08:41:10.297Z,0.30
2018-03-03T08:43:36.646Z,0.30
2018-03-03T08:46:03.813Z,0.40
2018-03-03T08:48:30.233Z,0.40
2018-03-03T08:50:56.641Z,0.50
2018-03-03T08:53:23.794Z,0.60
2018-03-03T08:55:50.901Z,0.70
2018-03-03T08:58:17.327Z,0.70
2018-03-03T09:00:44.466Z,0.90
2018-03-03T09:03:10.832Z,0.90
2018-03-03T09:05:37.205Z,1.10
2018-03-03T09:08:03.590Z,1.00
2018-03-03T09:10:30.025Z,1.10
2018-03-03T09:12:56.424Z,1.10
2018-03-03T09:15:22.855Z,1.20
2018-03-03T09:17:49.252Z,1.30
2018-03-03T09:20:15.660Z,1.40
2018-03-03T09:22:42.811Z,1.40
2018-03-03T09:25:09.947Z,1.40
2018-03-03T09:27:37.097Z,1.50
2018-03-03T09:30:04.259Z,1.50
2018-03-03T09:32:31.366Z,1.50
2018-03-03T09:34:57.784Z,1.50
2018-03-03T09:37:24.210Z,1.60
2018-03-03T09:39:50.671Z,1.60
2018-03-03T09:42:17.086Z,1.70
2018-03-03T09:44:43.518Z,1.80
2018-03-03T09:47:09.912Z,1.80
2018-03-03T09:49:36.327Z,1.80
2018-03-03T09:52:03.472Z,1.90
2018-03-03T09:54:30.615Z,2.00
2018-03-03T09:56:57.746Z,2.00
2018-03-03T09:59:24.086Z,2.00
2018-03-03T10:01:52.333Z,2.10
2018-03-03T10:04:16.937Z,2.10
2018-03-03T10:06:43.308Z,2.20
2018-03-03T10:09:09.715Z,2.20
2018-03-03T10:11:36.138Z,2.20
2018-03-03T10:14:02.542Z,2.30
2018-03-03T10:16:28.962Z,2.30
2018-03-03T10:18:55.353Z,2.40
2018-03-03T10:21:22.505Z,2.50
2018-03-03T10:23:49.662Z,2.60
2018-03-03T10:26:16.127Z,2.50
2018-03-03T10:28:42.536Z,2.70
2018-03-03T10:31:09.797Z,2.90
2018-03-03T10:33:36.161Z,2.80
2018-03-03T10:36:02.586Z,3.00
2018-03-03T10:38:35.918Z,3.00
2018-03-03T10:41:03.098Z,3.20
2018-03-03T10:43:29.495Z,3.10
2018-03-03T10:45:56.674Z,3.20
2018-03-03T10:48:23.062Z,3.20
2018-03-03T10:50:49.506Z,3.30
2018-03-03T10:53:15.865Z,3.50
2018-03-03T10:55:42.305Z,3.60
2018-03-03T10:58:08.698Z,3.70
2018-03-03T11:00:35.828Z,3.90
2018-03-03T11:03:02.248Z,3.90
2018-03-03T11:05:28.695Z,4.00
2018-03-03T11:07:55.078Z,4.10
2018-03-03T11:10:21.458Z,4.30
2018-03-03T11:12:47.877Z,4.40
2018-03-03T11:15:14.299Z,4.40
2018-03-03T11:17:40.701Z,4.60
2018-03-03T11:20:07.697Z,4.70
2018-03-03T11:22:34.098Z,4.70
2018-03-03T11:25:00.530Z,4.80
2018-03-03T11:27:26.937Z,4.90
2018-03-03T11:29:53.438Z,4.90
2018-03-03T11:32:20.666Z,5.10
2018-03-03T11:34:47.222Z,5.00
2018-03-03T11:37:14.403Z,5.30
2018-03-03T11:39:41.642Z,5.30
2018-03-03T11:42:08.107Z,5.40
2018-03-03T11:44:34.574Z,5.40
2018-03-03T11:47:01.735Z,5.60
2018-03-03T11:49:28.882Z,5.70
2018-03-03T11:51:56.969Z,5.60
2018-03-03T11:54:23.427Z,5.60
2018-03-03T11:56:49.910Z,5.70
2018-03-03T11:59:17.044Z,5.90
2018-03-03T12:01:43.425Z,5.90
2018-03-03T12:04:09.845Z,6.00
2018-03-03T12:06:36.272Z,6.10
2018-03-03T12:09:02.720Z,6.20
2018-03-03T12:11:29.203Z,6.40
2018-03-03T12:13:55.677Z,6.40
2018-03-03T12:16:22.083Z,6.50
2018-03-03T12:18:49.258Z,6.60
2018-03-03T12:21:15.703Z,6.60
2018-03-03T12:23:42.086Z,6.60
2018-03-03T12:26:08.465Z,6.70
2018-03-03T12:28:34.845Z,6.80
2018-03-03T12:31:01.257Z,7.00
2018-03-03T12:33:27.688Z,7.00
2018-03-03T12:35:54.299Z,7.10
2018-03-03T12:38:20.691Z,7.10
2018-03-03T12:40:47.137Z,7.20
2018-03-03T12:43:13.554Z,7.20
2018-03-03T12:45:40.788Z,7.20
2018-03-03T12:48:07.969Z,7.20
2018-03-03T12:50:34.374Z,7.20
2018-03-03T12:53:00.795Z,7.30
2018-03-03T12:55:27.240Z,7.30
2018-03-03T12:57:54.421Z,7.50
2018-03-03T13:00:20.855Z,7.40
2018-03-03T13:02:47.283Z,7.50
2018-03-03T13:05:13.672Z,7.60
2018-03-03T13:07:40.110Z,7.60
2018-03-03T13:10:07.294Z,7.70
2018-03-03T13:12:33.718Z,7.70
2018-03-03T13:15:00.889Z,7.70
2018-03-03T13:17:27.355Z,7.70
2018-03-03T13:19:53.782Z,7.80
2018-03-03T13:22:20.173Z,7.90
2018-03-03T13:24:46.616Z,7.90
2018-03-03T13:27:12.976Z,8.00
2018-03-03T13:29:39.342Z,8.20
2018-03-03T13:32:06.045Z,8.10
2018-03-03T13:34:32.438Z,8.20
2018-03-03T13:36:58.830Z,8.30
2018-03-03T13:39:25.973Z,8.20
2018-03-03T13:41:52.412Z,8.20
2018-03-03T13:44:19.554Z,8.20
2018-03-03T13:46:45.951Z,8.20
2018-03-03T13:49:12.372Z,8.30
2018-03-03T13:51:38.772Z,8.30
2018-03-03T13:54:05.899Z,8.30
2018-03-03T13:56:32.360Z,8.30
2018-03-03T13:58:58.777Z,8.30
2018-03-03T14:01:25.160Z,8.30
2018-03-03T14:03:51.546Z,8.30
2018-03-03T14:06:17.961Z,8.30
2018-03-03T14:08:45.146Z,8.40
2018-03-03T14:11:11.552Z,8.40
2018-03-03T14:13:37.946Z,8.40
2018-03-03T14:16:05.094Z,8.60
2018-03-03T14:18:31.555Z,8.60
2018-03-03T14:20:58.655Z,8.90
2018-03-03T14:23:25.060Z,8.80
2018-03-03T14:25:51.468Z,9.00
2018-03-03T14:28:17.853Z,9.00
2018-03-03T14:30:44.256Z,9.10
2018-03-03T14:33:10.667Z,9.20
2018-03-03T14:35:37.099Z,9.30
2018-03-03T14:38:03.547Z,9.20
2018-03-03T14:40:29.975Z,9.30
2018-03-03T14:42:56.362Z,9.30
2018-03-03T14:45:23.551Z,9.30
2018-03-03T14:47:49.951Z,9.30
2018-03-03T14:50:17.122Z,9.30
2018-03-03T14:52:43.536Z,9.30
2018-03-03T14:55:10.687Z,9.20
2018-03-03T14:57:37.125Z,9.20
2018-03-03T15:00:05.291Z,9.30
2018-03-03T15:02:32.403Z,9.30
2018-03-03T15:04:58.790Z,9.30
2018-03-03T15:07:25.170Z,9.30
2018-03-03T15:09:51.555Z,9.20
2018-03-03T15:12:17.998Z,9.20
2018-03-03T15:14:44.507Z,9.20
2018-03-03T15:17:11.609Z,8.70
2018-03-03T15:19:38.083Z,8.70
2018-03-03T15:22:05.197Z,8.80
2018-03-03T15:24:31.598Z,8.70
2018-03-03T15:26:58.043Z,8.90
2018-03-03T15:29:24.406Z,8.90
2018-03-03T15:31:50.911Z,8.90
2018-03-03T15:34:17.340Z,8.90
2018-03-03T15:36:45.571Z,8.80
2018-03-03T15:39:11.995Z,8.80
2018-03-03T15:41:38.426Z,8.80
2018-03-03T15:44:04.846Z,8.50
2018-03-03T15:46:31.259Z,8.50
2018-03-03T15:48:57.693Z,8.50
2018-03-03T15:51:24.116Z,8.50
2018-03-03T15:53:50.537Z,8.50
2018-03-03T15:56:16.962Z,8.40
2018-03-03T15:58:43.459Z,8.40
2018-03-03T16:01:09.954Z,8.40
2018-03-03T16:03:37.055Z,8.30
2018-03-03T16:06:03.442Z,8.30
2018-03-03T16:08:30.594Z,8.20
2018-03-03T16:10:57.766Z,8.00
2018-03-03T16:13:24.164Z,8.00
2018-03-03T16:15:50.685Z,8.00
2018-03-03T16:18:17.241Z,7.90
2018-03-03T16:20:44.447Z,7.70
2018-03-03T16:23:10.882Z,7.70
2018-03-03T16:25:37.344Z,7.70
2018-03-03T16:28:03.699Z,7.70
2018-03-03T16:30:30.814Z,7.60
2018-03-03T16:32:57.241Z,7.60
2018-03-03T16:35:23.712Z,7.70
2018-03-03T16:37:50.885Z,7.50
2018-03-03T16:40:17.296Z,7.50
2018-03-03T16:42:43.708Z,7.50
2018-03-03T16:45:10.829Z,7.40
2018-03-03T16:47:37.242Z,7.40
2018-03-03T16:50:03.696Z,7.30
2018-03-03T16:52:30.083Z,7.20
2018-03-03T16:54:56.468Z,7.20
2018-03-03T16:57:22.901Z,7.10
2018-03-03T16:59:49.277Z,7.10
2018-03-03T17:02:15.828Z,7.10
2018-03-03T17:04:42.357Z,7.10
2018-03-03T17:07:08.783Z,7.00
2018-03-03T17:09:35.219Z,7.00
2018-03-03T17:12:01.613Z,7.00
2018-03-03T17:14:29.626Z,6.80
2018-03-03T17:16:57.005Z,6.80
2018-03-03T17:19:23.480Z,6.80
2018-03-03T17:21:49.900Z,6.80
2018-03-03T17:24:17.073Z,6.50
2018-03-03T17:26:43.534Z,6.50
2018-03-03T17:29:09.895Z,6.40
2018-03-03T17:31:37.103Z,6.30
2018-03-03T17:34:03.616Z,6.30
2018-03-03T17:36:30.018Z,6.30
2018-03-03T17:38:57.229Z,6.20
2018-03-03T17:41:23.667Z,6.20
2018-03-03T17:43:50.093Z,6.20
2018-03-03T17:46:16.505Z,6.10
2018-03-03T17:48:42.871Z,6.10
2018-03-03T17:51:09.308Z,6.00
2018-03-03T17:53:36.532Z,6.10
2018-03-03T17:56:02.976Z,6.10
2018-03-03T17:58:29.421Z,6.10
2018-03-03T18:00:55.925Z,6.10
2018-03-03T18:03:22.305Z,6.10
2018-03-03T18:05:49.690Z,6.20
2018-03-03T18:08:16.064Z,6.20
2018-03-03T18:10:42.541Z,6.10
2018-03-03T18:13:08.957Z,6.10
2018-03-03T18:15:36.081Z,6.00
2018-03-03T18:18:02.505Z,6.00
2018-03-03T18:20:29.560Z,6.00
2018-03-03T18:22:56.007Z,6.00
2018-03-03T18:25:23.138Z,6.00
2018-03-03T18:27:49.541Z,6.00
2018-03-03T18:30:15.934Z,6.00
2018-03-03T18:32:42.378Z,6.00
2018-03-03T18:35:08.811Z,6.00
2018-03-03T18:37:35.202Z,6.00
2018-03-03T18:40:01.647Z,5.90
2018-03-03T18:42:28.790Z,5.70
2018-03-03T18:44:55.966Z,5.80
2018-03-03T18:47:22.339Z,5.70
2018-03-03T18:49:48.884Z,5.70
2018-03-03T18:52:16.035Z,5.70
2018-03-03T18:54:42.454Z,5.70
2018-03-03T18:57:08.938Z,5.80
2018-03-03T18:59:35.369Z,5.80
2018-03-03T19:02:02.665Z,5.70
2018-03-03T19:04:29.076Z,5.70
2018-03-03T19:06:55.509Z,5.60
2018-03-03T19:09:21.912Z,5.60
2018-03-03T19:11:48.298Z,5.60
2018-03-03T19:14:14.775Z,5.50
2018-03-03T19:16:41.226Z,5.50
2018-03-03T19:19:07.597Z,5.40
2018-03-03T19:21:34.090Z,5.40
2018-03-03T19:24:00.505Z,5.40
2018-03-03T19:26:26.906Z,5.20
2018-03-03T19:28:54.118Z,5.10
2018-03-03T19:31:20.546Z,5.10
2018-03-03T19:33:47.081Z,5.10
2018-03-03T19:36:13.504Z,5.10
2018-03-03T19:38:40.802Z,5.20
2018-03-03T19:41:07.984Z,5.10
2018-03-03T19:43:34.453Z,5.10
2018-03-03T19:46:00.921Z,5.20
2018-03-03T19:48:27.367Z,5.10
2018-03-03T19:50:53.780Z,5.00
2018-03-03T19:53:20.915Z,5.00
2018-03-03T19:55:47.364Z,4.90
2018-03-03T19:58:13.779Z,4.90
2018-03-03T20:00:40.202Z,4.90
2018-03-03T20:03:06.677Z,4.90
2018-03-03T20:05:34.035Z,4.80
2018-03-03T20:08:00.435Z,4.70
2018-03-03T20:10:26.850Z,4.70
2018-03-03T20:12:53.268Z,4.70
2018-03-03T20:15:19.686Z,4.80
2018-03-03T20:17:46.104Z,4.80
2018-03-03T20:20:12.526Z,4.80
2018-03-03T20:22:38.932Z,4.80
2018-03-03T20:25:06.094Z,4.80
2018-03-03T20:27:32.496Z,4.80
2018-03-03T20:30:05.842Z,4.80
2018-03-03T20:32:32.259Z,4.90
2018-03-03T20:34:58.714Z,4.90
2018-03-03T20:37:25.738Z,4.90
2018-03-03T20:39:52.200Z,5.00
2018-03-03T20:42:18.606Z,5.00
2018-03-03T20:44:45.049Z,5.00
2018-03-03T20:47:11.447Z,5.00
2018-03-03T20:49:38.619Z,5.00
2018-03-03T20:52:05.015Z,5.00
2018-03-03T20:54:31.476Z,5.00
2018-03-03T20:56:57.880Z,5.00
2018-03-03T20:59:24.970Z,5.00
2018-03-03T21:01:51.355Z,5.00
2018-03-03T21:04:17.804Z,4.80
2018-03-03T21:06:44.977Z,4.80
2018-03-03T21:09:11.342Z,4.80
2018-03-03T21:11:37.801Z,4.90
2018-03-03T21:14:04.970Z,4.70
2018-03-03T21:16:31.403Z,4.60
2018-03-03T21:18:58.555Z,4.60
2018-03-03T21:21:24.972Z,4.60
2018-03-03T21:23:51.395Z,4.60
2018-03-03T21:26:18.510Z,4.80
2018-03-03T21:28:44.948Z,4.70
2018-03-03T21:31:12.155Z,4.80
2018-03-03T21:33:38.547Z,4.80
2018-03-03T21:36:04.959Z,4.80
2018-03-03T21:38:31.385Z,4.90
2018-03-03T21:40:57.823Z,4.90
2018-03-03T21:43:24.258Z,4.80
2018-03-03T21:45:50.671Z,4.60
2018-03-03T21:48:17.087Z,4.50
2018-03-03T21:50:43.493Z,4.60
2018-03-03T21:53:09.915Z,4.60
2018-03-03T21:55:37.048Z,4.60
2018-03-03T21:58:03.462Z,4.50
2018-03-03T22:00:29.896Z,4.60
2018-03-03T22:02:56.347Z,4.50
2018-03-03T22:05:23.528Z,4.60
2018-03-03T22:07:49.970Z,4.60
2018-03-03T22:10:16.428Z,4.60
2018-03-03T22:12:42.819Z,4.50
2018-03-03T22:15:09.214Z,4.40
2018-03-03T22:17:35.639Z,4.50
2018-03-03T22:20:02.869Z,4.50
2018-03-03T22:22:29.329Z,4.50
2018-03-03T22:24:55.707Z,4.40
2018-03-03T22:27:22.173Z,4.40
2018-03-03T22:29:48.605Z,4.30
2018-03-03T22:32:14.988Z,4.30
2018-03-03T22:34:41.388Z,4.40
2018-03-03T22:37:09.271Z,4.30
2018-03-03T22:39:35.756Z,4.30
2018-03-03T22:42:02.900Z,4.50
2018-03-03T22:44:29.331Z,4.50
2018-03-03T22:46:55.722Z,4.50
2018-03-03T22:49:22.128Z,4.60
2018-03-03T22:51:49.256Z,4.50
2018-03-03T22:54:15.710Z,4.50
2018-03-03T22:56:42.101Z,4.50
2018-03-03T22:59:08.467Z,4.30
2018-03-03T23:01:34.911Z,4.20
2018-03-03T23:04:02.101Z,4.10
2018-03-03T23:06:29.272Z,4.10
2018-03-03T23:08:55.677Z,4.10
2018-03-03T23:11:22.768Z,4.10
2018-03-03T23:13:49.144Z,4.20
2018-03-03T23:16:15.535Z,4.10
2018-03-03T23:18:41.928Z,4.10
2018-03-03T23:21:08.293Z,4.00
2018-03-03T23:23:34.719Z,4.10
2018-03-03T23:26:01.083Z,4.10
2018-03-03T23:28:27.482Z,4.20
2018-03-03T23:30:53.887Z,4.20
2018-03-03T23:33:20.274Z,4.10
2018-03-03T23:35:46.694Z,4.20
2018-03-03T23:38:13.862Z,4.20
2018-03-03T23:40:40.263Z,4.10
2018-03-03T23:43:07.444Z,4.10
2018-03-03T23:45:33.842Z,4.10
2018-03-03T23:48:00.222Z,4.20
2018-03-03T23:50:26.661Z,4.20
2018-03-03T23:52:53.047Z,4.30
2018-03-03T23:55:20.195Z,4.30
2018-03-03T23:57:47.311Z,4.40
